sensor_id;sensor_type;location;lat;lon;timestamp;P1;durP1;ratioP1;P2;durP2;ratioP2
66628;SDS011;53532;53.084;6.352;2022-12-05T00:00:55;41.88;;;24.77;;
66628;SDS011;53532;53.084;6.352;2022-12-05T00:03:21;44.13;;;24.27;;
66628;SDS011;53532;53.084;6.352;2022-12-05T00:05:47;47.83;;;24.83;;
66628;SDS011;53532;53.084;6.352;2022-12-05T00:08:13;43.47;;;24.75;;
66628;SDS011;53532;53.084;6.352;2022-12-05T00:10:40;46.17;;;24.92;;
66628;SDS011;53532;53.084;6.352;2022-12-05T00:13:06;44.42;;;24.60;;
66628;SDS011;53532;53.084;6.352;2022-12-05T00:15:34;44.37;;;25.30;;
66628;SDS011;53532;53.084;6.352;2022-12-05T00:18:01;45.93;;;25.63;;
66628;SDS011;53532;53.084;6.352;2022-12-05T00:20:27;43.63;;;23.65;;
66628;SDS011;53532;53.084;6.352;2022-12-05T00:22:53;40.55;;;23.60;;
66628;SDS011;53532;53.084;6.352;2022-12-05T00:25:19;43.15;;;24.33;;
66628;SDS011;53532;53.084;6.352;2022-12-05T00:27:46;44.15;;;24.52;;
66628;SDS011;53532;53.084;6.352;2022-12-05T00:30:12;43.17;;;24.40;;
66628;SDS011;53532;53.084;6.352;2022-12-05T00:32:38;42.33;;;24.08;;
66628;SDS011;53532;53.084;6.352;2022-12-05T00:35:04;44.23;;;24.20;;
66628;SDS011;53532;53.084;6.352;2022-12-05T00:37:30;41.93;;;24.00;;
66628;SDS011;53532;53.084;6.352;2022-12-05T00:39:55;40.87;;;23.27;;
66628;SDS011;53532;53.084;6.352;2022-12-05T00:42:21;41.60;;;23.40;;
66628;SDS011;53532;53.084;6.352;2022-12-05T00:44:49;44.20;;;24.43;;
66628;SDS011;53532;53.084;6.352;2022-12-05T00:47:14;43.33;;;24.17;;
66628;SDS011;53532;53.084;6.352;2022-12-05T00:49:40;44.15;;;24.27;;
66628;SDS011;53532;53.084;6.352;2022-12-05T00:52:06;42.17;;;25.20;;
66628;SDS011;53532;53.084;6.352;2022-12-05T00:54:32;45.70;;;25.97;;
66628;SDS011;53532;53.084;6.352;2022-12-05T00:56:58;45.97;;;25.42;;
66628;SDS011;53532;53.084;6.352;2022-12-05T00:59:23;48.88;;;27.15;;
66628;SDS011;53532;53.084;6.352;2022-12-05T01:01:51;50.80;;;27.38;;
66628;SDS011;53532;53.084;6.352;2022-12-05T01:04:18;48.78;;;28.40;;
66628;SDS011;53532;53.084;6.352;2022-12-05T01:06:45;49.67;;;27.33;;
66628;SDS011;53532;53.084;6.352;2022-12-05T01:09:11;50.92;;;28.48;;
66628;SDS011;53532;53.084;6.352;2022-12-05T01:11:39;52.97;;;28.58;;
66628;SDS011;53532;53.084;6.352;2022-12-05T01:14:06;50.15;;;29.15;;
66628;SDS011;53532;53.084;6.352;2022-12-05T01:16:32;47.38;;;27.27;;
66628;SDS011;53532;53.084;6.352;2022-12-05T01:19:03;53.50;;;29.03;;
66628;SDS011;53532;53.084;6.352;2022-12-05T01:21:30;49.40;;;27.83;;
66628;SDS011;53532;53.084;6.352;2022-12-05T01:23:56;50.03;;;27.60;;
66628;SDS011;53532;53.084;6.352;2022-12-05T01:26:22;51.45;;;28.02;;
66628;SDS011;53532;53.084;6.352;2022-12-05T01:28:49;52.47;;;28.13;;
66628;SDS011;53532;53.084;6.352;2022-12-05T01:31:16;57.70;;;28.55;;
66628;SDS011;53532;53.084;6.352;2022-12-05T01:33:45;53.22;;;29.52;;
66628;SDS011;53532;53.084;6.352;2022-12-05T01:36:12;49.60;;;28.85;;
66628;SDS011;53532;53.084;6.352;2022-12-05T01:38:39;51.45;;;28.95;;
66628;SDS011;53532;53.084;6.352;2022-12-05T01:41:07;52.03;;;29.02;;
66628;SDS011;53532;53.084;6.352;2022-12-05T01:46:23;54.07;;;29.60;;
66628;SDS011;53532;53.084;6.352;2022-12-05T01:48:50;53.60;;;29.40;;
66628;SDS011;53532;53.084;6.352;2022-12-05T01:51:22;51.60;;;28.50;;
66628;SDS011;53532;53.084;6.352;2022-12-05T01:53:49;53.40;;;29.08;;
66628;SDS011;53532;53.084;6.352;2022-12-05T01:56:15;50.30;;;27.20;;
66628;SDS011;53532;53.084;6.352;2022-12-05T01:58:43;52.28;;;28.83;;
66628;SDS011;53532;53.084;6.352;2022-12-05T02:01:10;48.80;;;27.00;;
66628;SDS011;53532;53.084;6.352;2022-12-05T02:03:37;48.47;;;27.60;;
66628;SDS011;53532;53.084;6.352;2022-12-05T02:06:04;45.75;;;26.88;;
66628;SDS011;53532;53.084;6.352;2022-12-05T02:08:32;45.67;;;26.20;;
66628;SDS011;53532;53.084;6.352;2022-12-05T02:10:58;45.28;;;24.95;;
66628;SDS011;53532;53.084;6.352;2022-12-05T02:13:30;46.53;;;25.33;;
66628;SDS011;53532;53.084;6.352;2022-12-05T02:16:08;48.20;;;26.67;;
66628;SDS011;53532;53.084;6.352;2022-12-05T02:18:39;44.13;;;24.25;;
66628;SDS011;53532;53.084;6.352;2022-12-05T02:21:21;41.15;;;23.50;;
66628;SDS011;53532;53.084;6.352;2022-12-05T02:24:10;44.42;;;24.75;;
66628;SDS011;53532;53.084;6.352;2022-12-05T02:26:55;39.92;;;22.80;;
66628;SDS011;53532;53.084;6.352;2022-12-05T02:32:31;36.65;;;22.08;;
66628;SDS011;53532;53.084;6.352;2022-12-05T02:35:04;34.88;;;20.73;;
66628;SDS011;53532;53.084;6.352;2022-12-05T02:37:39;33.23;;;20.77;;
66628;SDS011;53532;53.084;6.352;2022-12-05T02:40:13;32.83;;;19.90;;
66628;SDS011;53532;53.084;6.352;2022-12-05T02:42:48;31.27;;;18.77;;
66628;SDS011;53532;53.084;6.352;2022-12-05T02:45:19;32.00;;;19.25;;
66628;SDS011;53532;53.084;6.352;2022-12-05T02:47:48;33.58;;;18.77;;
66628;SDS011;53532;53.084;6.352;2022-12-05T02:50:16;31.23;;;19.27;;
66628;SDS011;53532;53.084;6.352;2022-12-05T02:52:44;31.77;;;19.80;;
66628;SDS011;53532;53.084;6.352;2022-12-05T02:55:12;31.63;;;18.92;;
66628;SDS011;53532;53.084;6.352;2022-12-05T02:57:40;29.80;;;18.02;;
66628;SDS011;53532;53.084;6.352;2022-12-05T03:00:12;32.47;;;18.63;;
66628;SDS011;53532;53.084;6.352;2022-12-05T03:02:40;28.60;;;18.07;;
66628;SDS011;53532;53.084;6.352;2022-12-05T03:05:09;30.50;;;18.17;;
66628;SDS011;53532;53.084;6.352;2022-12-05T03:07:43;29.27;;;17.65;;
66628;SDS011;53532;53.084;6.352;2022-12-05T03:10:13;29.60;;;17.05;;
66628;SDS011;53532;53.084;6.352;2022-12-05T03:12:42;27.30;;;16.67;;
66628;SDS011;53532;53.084;6.352;2022-12-05T03:15:13;27.52;;;17.02;;
66628;SDS011;53532;53.084;6.352;2022-12-05T03:17:43;29.45;;;17.10;;
66628;SDS011;53532;53.084;6.352;2022-12-05T03:20:14;27.40;;;16.65;;
66628;SDS011;53532;53.084;6.352;2022-12-05T03:22:45;26.33;;;16.23;;
66628;SDS011;53532;53.084;6.352;2022-12-05T03:25:14;32.63;;;17.67;;
66628;SDS011;53532;53.084;6.352;2022-12-05T03:27:43;26.45;;;16.42;;
66628;SDS011;53532;53.084;6.352;2022-12-05T03:30:15;26.30;;;16.45;;
66628;SDS011;53532;53.084;6.352;2022-12-05T03:32:45;27.85;;;15.60;;
66628;SDS011;53532;53.084;6.352;2022-12-05T03:35:20;24.67;;;14.70;;
66628;SDS011;53532;53.084;6.352;2022-12-05T03:37:52;24.92;;;14.77;;
66628;SDS011;53532;53.084;6.352;2022-12-05T03:40:24;24.40;;;15.00;;
66628;SDS011;53532;53.084;6.352;2022-12-05T03:42:54;22.52;;;14.20;;
66628;SDS011;53532;53.084;6.352;2022-12-05T03:45:26;24.38;;;14.70;;
66628;SDS011;53532;53.084;6.352;2022-12-05T03:48:03;24.30;;;14.90;;
66628;SDS011;53532;53.084;6.352;2022-12-05T03:50:33;21.98;;;14.18;;
66628;SDS011;53532;53.084;6.352;2022-12-05T03:53:04;24.20;;;14.18;;
66628;SDS011;53532;53.084;6.352;2022-12-05T03:55:34;24.98;;;14.75;;
66628;SDS011;53532;53.084;6.352;2022-12-05T03:58:04;25.58;;;14.40;;
66628;SDS011;53532;53.084;6.352;2022-12-05T04:00:33;22.65;;;14.80;;
66628;SDS011;53532;53.084;6.352;2022-12-05T04:03:04;28.33;;;13.82;;
66628;SDS011;53532;53.084;6.352;2022-12-05T04:05:34;22.83;;;13.95;;
66628;SDS011;53532;53.084;6.352;2022-12-05T04:08:05;24.92;;;14.45;;
66628;SDS011;53532;53.084;6.352;2022-12-05T04:10:33;24.10;;;14.18;;
66628;SDS011;53532;53.084;6.352;2022-12-05T04:13:12;24.13;;;14.45;;
66628;SDS011;53532;53.084;6.352;2022-12-05T04:15:44;23.70;;;13.95;;
66628;SDS011;53532;53.084;6.352;2022-12-05T04:18:33;25.38;;;14.13;;
66628;SDS011;53532;53.084;6.352;2022-12-05T04:21:03;22.13;;;13.60;;
66628;SDS011;53532;53.084;6.352;2022-12-05T04:23:49;24.10;;;13.32;;
66628;SDS011;53532;53.084;6.352;2022-12-05T04:26:35;23.38;;;13.43;;
66628;SDS011;53532;53.084;6.352;2022-12-05T04:29:07;22.95;;;13.43;;
66628;SDS011;53532;53.084;6.352;2022-12-05T04:31:41;22.75;;;13.55;;
66628;SDS011;53532;53.084;6.352;2022-12-05T04:34:09;22.38;;;12.82;;
66628;SDS011;53532;53.084;6.352;2022-12-05T04:36:38;26.40;;;14.18;;
66628;SDS011;53532;53.084;6.352;2022-12-05T04:39:09;24.73;;;13.43;;
66628;SDS011;53532;53.084;6.352;2022-12-05T04:41:38;21.42;;;12.55;;
66628;SDS011;53532;53.084;6.352;2022-12-05T04:44:10;23.40;;;13.43;;
66628;SDS011;53532;53.084;6.352;2022-12-05T04:46:40;23.02;;;13.32;;
66628;SDS011;53532;53.084;6.352;2022-12-05T04:49:13;24.17;;;13.90;;
66628;SDS011;53532;53.084;6.352;2022-12-05T04:51:42;23.35;;;12.82;;
66628;SDS011;53532;53.084;6.352;2022-12-05T04:54:14;24.88;;;13.48;;
66628;SDS011;53532;53.084;6.352;2022-12-05T04:56:43;27.80;;;15.07;;
66628;SDS011;53532;53.084;6.352;2022-12-05T04:59:13;27.40;;;14.20;;
66628;SDS011;53532;53.084;6.352;2022-12-05T05:01:40;23.92;;;13.68;;
66628;SDS011;53532;53.084;6.352;2022-12-05T05:04:12;25.55;;;14.07;;
66628;SDS011;53532;53.084;6.352;2022-12-05T05:06:41;25.25;;;14.13;;
66628;SDS011;53532;53.084;6.352;2022-12-05T05:09:08;27.27;;;14.57;;
66628;SDS011;53532;53.084;6.352;2022-12-05T05:11:35;30.05;;;14.65;;
66628;SDS011;53532;53.084;6.352;2022-12-05T05:14:01;29.15;;;14.73;;
66628;SDS011;53532;53.084;6.352;2022-12-05T05:16:28;26.33;;;14.75;;
66628;SDS011;53532;53.084;6.352;2022-12-05T05:18:55;27.23;;;14.48;;
66628;SDS011;53532;53.084;6.352;2022-12-05T05:21:24;29.27;;;14.10;;
66628;SDS011;53532;53.084;6.352;2022-12-05T05:23:51;26.98;;;14.15;;
66628;SDS011;53532;53.084;6.352;2022-12-05T05:26:17;23.70;;;14.00;;
66628;SDS011;53532;53.084;6.352;2022-12-05T05:28:44;25.52;;;13.48;;
66628;SDS011;53532;53.084;6.352;2022-12-05T05:31:10;27.42;;;14.20;;
66628;SDS011;53532;53.084;6.352;2022-12-05T05:33:36;26.27;;;14.25;;
66628;SDS011;53532;53.084;6.352;2022-12-05T05:36:03;28.73;;;14.25;;
66628;SDS011;53532;53.084;6.352;2022-12-05T05:38:31;24.17;;;13.30;;
66628;SDS011;53532;53.084;6.352;2022-12-05T05:41:00;27.23;;;13.60;;
66628;SDS011;53532;53.084;6.352;2022-12-05T05:43:26;22.55;;;13.05;;
66628;SDS011;53532;53.084;6.352;2022-12-05T05:45:52;25.98;;;13.70;;
66628;SDS011;53532;53.084;6.352;2022-12-05T05:48:18;23.85;;;12.82;;
66628;SDS011;53532;53.084;6.352;2022-12-05T05:50:43;23.20;;;13.05;;
66628;SDS011;53532;53.084;6.352;2022-12-05T05:53:09;23.17;;;13.10;;
66628;SDS011;53532;53.084;6.352;2022-12-05T05:55:39;23.40;;;13.30;;
66628;SDS011;53532;53.084;6.352;2022-12-05T05:58:05;24.77;;;12.73;;
66628;SDS011;53532;53.084;6.352;2022-12-05T06:00:32;23.67;;;13.07;;
66628;SDS011;53532;53.084;6.352;2022-12-05T06:02:57;23.50;;;12.55;;
66628;SDS011;53532;53.084;6.352;2022-12-05T06:05:23;24.70;;;12.90;;
66628;SDS011;53532;53.084;6.352;2022-12-05T06:07:50;23.23;;;12.00;;
66628;SDS011;53532;53.084;6.352;2022-12-05T06:10:16;21.08;;;12.18;;
66628;SDS011;53532;53.084;6.352;2022-12-05T06:12:44;21.50;;;11.95;;
66628;SDS011;53532;53.084;6.352;2022-12-05T06:15:10;23.33;;;12.55;;
66628;SDS011;53532;53.084;6.352;2022-12-05T06:17:36;22.58;;;11.68;;
66628;SDS011;53532;53.084;6.352;2022-12-05T06:20:02;23.90;;;13.25;;
66628;SDS011;53532;53.084;6.352;2022-12-05T06:22:28;21.67;;;12.45;;
66628;SDS011;53532;53.084;6.352;2022-12-05T06:24:54;22.25;;;12.65;;
66628;SDS011;53532;53.084;6.352;2022-12-05T06:27:20;21.88;;;12.82;;
66628;SDS011;53532;53.084;6.352;2022-12-05T06:29:47;23.10;;;12.95;;
66628;SDS011;53532;53.084;6.352;2022-12-05T06:32:13;22.50;;;12.40;;
66628;SDS011;53532;53.084;6.352;2022-12-05T06:34:38;25.20;;;12.52;;
66628;SDS011;53532;53.084;6.352;2022-12-05T06:37:04;20.98;;;12.35;;
66628;SDS011;53532;53.084;6.352;2022-12-05T06:39:30;22.33;;;12.65;;
66628;SDS011;53532;53.084;6.352;2022-12-05T06:41:56;21.85;;;12.27;;
66628;SDS011;53532;53.084;6.352;2022-12-05T06:44:22;20.83;;;12.13;;
66628;SDS011;53532;53.084;6.352;2022-12-05T06:46:52;26.08;;;12.93;;
66628;SDS011;53532;53.084;6.352;2022-12-05T06:49:19;22.83;;;11.98;;
66628;SDS011;53532;53.084;6.352;2022-12-05T06:51:46;24.80;;;13.80;;
66628;SDS011;53532;53.084;6.352;2022-12-05T06:54:12;25.15;;;13.00;;
66628;SDS011;53532;53.084;6.352;2022-12-05T06:56:38;26.95;;;13.07;;
66628;SDS011;53532;53.084;6.352;2022-12-05T06:59:04;25.98;;;13.23;;
66628;SDS011;53532;53.084;6.352;2022-12-05T07:01:30;27.23;;;13.30;;
66628;SDS011;53532;53.084;6.352;2022-12-05T07:04:08;26.80;;;13.88;;
66628;SDS011;53532;53.084;6.352;2022-12-05T07:06:36;26.73;;;14.00;;
66628;SDS011;53532;53.084;6.352;2022-12-05T07:09:02;25.73;;;13.27;;
66628;SDS011;53532;53.084;6.352;2022-12-05T07:11:29;27.10;;;14.50;;
66628;SDS011;53532;53.084;6.352;2022-12-05T07:13:55;28.20;;;14.70;;
66628;SDS011;53532;53.084;6.352;2022-12-05T07:16:21;30.73;;;14.30;;
66628;SDS011;53532;53.084;6.352;2022-12-05T07:18:47;29.00;;;13.88;;
66628;SDS011;53532;53.084;6.352;2022-12-05T07:21:15;28.23;;;13.30;;
66628;SDS011;53532;53.084;6.352;2022-12-05T07:23:42;27.45;;;13.65;;
66628;SDS011;53532;53.084;6.352;2022-12-05T07:26:09;29.40;;;14.43;;
66628;SDS011;53532;53.084;6.352;2022-12-05T07:28:37;29.40;;;13.60;;
66628;SDS011;53532;53.084;6.352;2022-12-05T07:31:03;29.20;;;14.35;;
66628;SDS011;53532;53.084;6.352;2022-12-05T07:33:30;28.95;;;14.13;;
66628;SDS011;53532;53.084;6.352;2022-12-05T07:35:59;31.40;;;14.80;;
66628;SDS011;53532;53.084;6.352;2022-12-05T07:38:27;30.25;;;15.25;;
66628;SDS011;53532;53.084;6.352;2022-12-05T07:40:53;30.73;;;13.95;;
66628;SDS011;53532;53.084;6.352;2022-12-05T07:43:19;31.48;;;14.18;;
66628;SDS011;53532;53.084;6.352;2022-12-05T07:45:44;32.38;;;14.85;;
66628;SDS011;53532;53.084;6.352;2022-12-05T07:48:10;31.55;;;14.60;;
66628;SDS011;53532;53.084;6.352;2022-12-05T07:50:36;33.25;;;15.27;;
66628;SDS011;53532;53.084;6.352;2022-12-05T07:53:02;31.38;;;15.13;;
66628;SDS011;53532;53.084;6.352;2022-12-05T07:55:29;33.22;;;15.48;;
66628;SDS011;53532;53.084;6.352;2022-12-05T07:57:55;30.95;;;14.90;;
66628;SDS011;53532;53.084;6.352;2022-12-05T08:00:21;32.58;;;14.63;;
66628;SDS011;53532;53.084;6.352;2022-12-05T08:02:47;34.25;;;15.23;;
66628;SDS011;53532;53.084;6.352;2022-12-05T08:05:13;30.30;;;15.20;;
66628;SDS011;53532;53.084;6.352;2022-12-05T08:07:39;34.25;;;15.45;;
66628;SDS011;53532;53.084;6.352;2022-12-05T08:10:06;32.28;;;14.95;;
66628;SDS011;53532;53.084;6.352;2022-12-05T08:12:33;31.45;;;15.38;;
66628;SDS011;53532;53.084;6.352;2022-12-05T08:14:59;29.95;;;15.85;;
66628;SDS011;53532;53.084;6.352;2022-12-05T08:17:25;32.13;;;15.18;;
66628;SDS011;53532;53.084;6.352;2022-12-05T08:19:53;31.80;;;15.15;;
66628;SDS011;53532;53.084;6.352;2022-12-05T08:22:20;32.10;;;15.05;;
66628;SDS011;53532;53.084;6.352;2022-12-05T08:24:48;30.23;;;14.80;;
66628;SDS011;53532;53.084;6.352;2022-12-05T08:27:14;30.52;;;14.48;;
66628;SDS011;53532;53.084;6.352;2022-12-05T08:29:41;29.55;;;14.32;;
66628;SDS011;53532;53.084;6.352;2022-12-05T08:32:07;32.35;;;14.43;;
66628;SDS011;53532;53.084;6.352;2022-12-05T08:34:32;31.33;;;14.85;;
66628;SDS011;53532;53.084;6.352;2022-12-05T08:36:58;27.73;;;13.73;;
66628;SDS011;53532;53.084;6.352;2022-12-05T08:39:24;35.42;;;15.13;;
66628;SDS011;53532;53.084;6.352;2022-12-05T08:41:51;34.03;;;14.50;;
66628;SDS011;53532;53.084;6.352;2022-12-05T08:44:17;31.40;;;13.85;;
66628;SDS011;53532;53.084;6.352;2022-12-05T08:46:45;29.17;;;14.20;;
66628;SDS011;53532;53.084;6.352;2022-12-05T08:49:11;30.00;;;14.45;;
66628;SDS011;53532;53.084;6.352;2022-12-05T08:51:38;30.25;;;13.60;;
66628;SDS011;53532;53.084;6.352;2022-12-05T08:54:05;28.65;;;13.57;;
66628;SDS011;53532;53.084;6.352;2022-12-05T08:56:30;29.10;;;13.85;;
66628;SDS011;53532;53.084;6.352;2022-12-05T08:58:57;26.60;;;13.35;;
66628;SDS011;53532;53.084;6.352;2022-12-05T09:01:23;23.75;;;12.80;;
66628;SDS011;53532;53.084;6.352;2022-12-05T09:03:56;24.45;;;12.55;;
66628;SDS011;53532;53.084;6.352;2022-12-05T09:06:22;24.25;;;12.02;;
66628;SDS011;53532;53.084;6.352;2022-12-05T09:08:51;22.58;;;12.13;;
66628;SDS011;53532;53.084;6.352;2022-12-05T09:11:20;26.52;;;12.77;;
66628;SDS011;53532;53.084;6.352;2022-12-05T09:13:51;28.00;;;13.50;;
66628;SDS011;53532;53.084;6.352;2022-12-05T09:16:19;29.15;;;13.82;;
66628;SDS011;53532;53.084;6.352;2022-12-05T09:18:46;28.88;;;13.70;;
66628;SDS011;53532;53.084;6.352;2022-12-05T09:21:14;28.80;;;13.35;;
66628;SDS011;53532;53.084;6.352;2022-12-05T09:23:42;25.80;;;13.30;;
66628;SDS011;53532;53.084;6.352;2022-12-05T09:26:09;31.38;;;14.25;;
66628;SDS011;53532;53.084;6.352;2022-12-05T09:28:37;28.08;;;14.23;;
66628;SDS011;53532;53.084;6.352;2022-12-05T09:31:04;31.17;;;14.90;;
66628;SDS011;53532;53.084;6.352;2022-12-05T09:33:31;30.35;;;14.43;;
66628;SDS011;53532;53.084;6.352;2022-12-05T09:36:00;32.45;;;14.68;;
66628;SDS011;53532;53.084;6.352;2022-12-05T09:38:28;34.50;;;15.40;;
66628;SDS011;53532;53.084;6.352;2022-12-05T09:40:56;33.90;;;15.55;;
66628;SDS011;53532;53.084;6.352;2022-12-05T09:43:29;35.60;;;15.63;;
66628;SDS011;53532;53.084;6.352;2022-12-05T09:46:03;30.60;;;16.23;;
66628;SDS011;53532;53.084;6.352;2022-12-05T09:48:42;30.02;;;15.73;;
66628;SDS011;53532;53.084;6.352;2022-12-05T09:51:09;30.02;;;15.60;;
66628;SDS011;53532;53.084;6.352;2022-12-05T09:53:38;30.42;;;15.73;;
66628;SDS011;53532;53.084;6.352;2022-12-05T09:56:05;33.28;;;15.68;;
66628;SDS011;53532;53.084;6.352;2022-12-05T09:58:43;33.65;;;15.88;;
66628;SDS011;53532;53.084;6.352;2022-12-05T10:01:15;31.75;;;16.50;;
66628;SDS011;53532;53.084;6.352;2022-12-05T10:03:55;36.28;;;16.00;;
66628;SDS011;53532;53.084;6.352;2022-12-05T10:06:32;34.75;;;16.42;;
66628;SDS011;53532;53.084;6.352;2022-12-05T10:09:09;35.80;;;16.05;;
66628;SDS011;53532;53.084;6.352;2022-12-05T10:11:45;32.05;;;15.98;;
66628;SDS011;53532;53.084;6.352;2022-12-05T10:14:17;32.10;;;16.15;;
66628;SDS011;53532;53.084;6.352;2022-12-05T10:16:53;37.00;;;17.92;;
66628;SDS011;53532;53.084;6.352;2022-12-05T10:19:22;35.22;;;17.23;;
66628;SDS011;53532;53.084;6.352;2022-12-05T10:21:54;38.65;;;17.88;;
66628;SDS011;53532;53.084;6.352;2022-12-05T10:24:27;34.85;;;16.85;;
66628;SDS011;53532;53.084;6.352;2022-12-05T10:26:56;33.70;;;17.02;;
66628;SDS011;53532;53.084;6.352;2022-12-05T10:29:27;35.65;;;16.20;;
66628;SDS011;53532;53.084;6.352;2022-12-05T10:31:56;29.38;;;14.95;;
66628;SDS011;53532;53.084;6.352;2022-12-05T10:34:30;36.53;;;16.17;;
66628;SDS011;53532;53.084;6.352;2022-12-05T10:37:01;35.75;;;16.08;;
66628;SDS011;53532;53.084;6.352;2022-12-05T10:39:36;34.05;;;16.02;;
66628;SDS011;53532;53.084;6.352;2022-12-05T10:42:02;34.67;;;15.85;;
66628;SDS011;53532;53.084;6.352;2022-12-05T10:44:29;31.20;;;15.20;;
66628;SDS011;53532;53.084;6.352;2022-12-05T10:46:56;31.77;;;15.23;;
66628;SDS011;53532;53.084;6.352;2022-12-05T10:49:22;30.92;;;15.82;;
66628;SDS011;53532;53.084;6.352;2022-12-05T10:51:48;34.15;;;15.43;;
66628;SDS011;53532;53.084;6.352;2022-12-05T10:54:16;26.70;;;14.25;;
66628;SDS011;53532;53.084;6.352;2022-12-05T10:56:46;35.38;;;16.73;;
66628;SDS011;53532;53.084;6.352;2022-12-05T10:59:14;28.38;;;14.02;;
66628;SDS011;53532;53.084;6.352;2022-12-05T11:01:42;31.30;;;14.70;;
66628;SDS011;53532;53.084;6.352;2022-12-05T11:04:16;33.50;;;15.13;;
66628;SDS011;53532;53.084;6.352;2022-12-05T11:06:47;37.33;;;16.05;;
66628;SDS011;53532;53.084;6.352;2022-12-05T11:09:16;30.88;;;14.98;;
66628;SDS011;53532;53.084;6.352;2022-12-05T11:11:43;27.75;;;13.73;;
66628;SDS011;53532;53.084;6.352;2022-12-05T11:14:23;27.17;;;13.27;;
66628;SDS011;53532;53.084;6.352;2022-12-05T11:16:51;28.85;;;13.35;;
66628;SDS011;53532;53.084;6.352;2022-12-05T11:19:22;28.88;;;14.40;;
66628;SDS011;53532;53.084;6.352;2022-12-05T11:21:49;27.42;;;14.18;;
66628;SDS011;53532;53.084;6.352;2022-12-05T11:24:19;29.77;;;13.88;;
66628;SDS011;53532;53.084;6.352;2022-12-05T11:26:47;27.75;;;13.73;;
66628;SDS011;53532;53.084;6.352;2022-12-05T11:29:27;26.98;;;13.63;;
66628;SDS011;53532;53.084;6.352;2022-12-05T11:31:53;30.20;;;14.40;;
66628;SDS011;53532;53.084;6.352;2022-12-05T11:34:20;28.48;;;14.02;;
66628;SDS011;53532;53.084;6.352;2022-12-05T11:36:49;24.88;;;13.52;;
66628;SDS011;53532;53.084;6.352;2022-12-05T11:39:16;23.98;;;12.50;;
66628;SDS011;53532;53.084;6.352;2022-12-05T11:44:41;25.33;;;12.68;;
66628;SDS011;53532;53.084;6.352;2022-12-05T11:47:13;25.00;;;13.40;;
66628;SDS011;53532;53.084;6.352;2022-12-05T11:49:51;29.63;;;13.43;;
66628;SDS011;53532;53.084;6.352;2022-12-05T11:52:25;24.58;;;12.55;;
66628;SDS011;53532;53.084;6.352;2022-12-05T11:54:53;25.13;;;12.80;;
66628;SDS011;53532;53.084;6.352;2022-12-05T11:57:23;27.17;;;13.00;;
66628;SDS011;53532;53.084;6.352;2022-12-05T12:00:04;24.33;;;11.98;;
66628;SDS011;53532;53.084;6.352;2022-12-05T12:02:35;24.23;;;11.93;;
66628;SDS011;53532;53.084;6.352;2022-12-05T12:05:08;22.83;;;11.75;;
66628;SDS011;53532;53.084;6.352;2022-12-05T12:07:44;24.08;;;11.57;;
66628;SDS011;53532;53.084;6.352;2022-12-05T12:10:17;24.70;;;11.95;;
66628;SDS011;53532;53.084;6.352;2022-12-05T12:12:49;25.20;;;11.45;;
66628;SDS011;53532;53.084;6.352;2022-12-05T12:15:24;23.08;;;11.02;;
66628;SDS011;53532;53.084;6.352;2022-12-05T12:17:55;21.83;;;10.98;;
66628;SDS011;53532;53.084;6.352;2022-12-05T12:20:30;25.08;;;11.45;;
66628;SDS011;53532;53.084;6.352;2022-12-05T12:23:04;22.00;;;10.73;;
66628;SDS011;53532;53.084;6.352;2022-12-05T12:25:35;25.17;;;10.77;;
66628;SDS011;53532;53.084;6.352;2022-12-05T12:28:06;21.48;;;10.77;;
66628;SDS011;53532;53.084;6.352;2022-12-05T12:30:38;21.88;;;9.82;;
66628;SDS011;53532;53.084;6.352;2022-12-05T12:33:09;19.20;;;9.57;;
66628;SDS011;53532;53.084;6.352;2022-12-05T12:35:37;20.85;;;9.90;;
66628;SDS011;53532;53.084;6.352;2022-12-05T12:38:16;21.95;;;9.55;;
66628;SDS011;53532;53.084;6.352;2022-12-05T12:40:45;20.58;;;10.00;;
66628;SDS011;53532;53.084;6.352;2022-12-05T12:43:16;19.17;;;9.93;;
66628;SDS011;53532;53.084;6.352;2022-12-05T12:45:59;19.27;;;9.45;;
66628;SDS011;53532;53.084;6.352;2022-12-05T12:48:34;23.23;;;10.35;;
66628;SDS011;53532;53.084;6.352;2022-12-05T12:51:03;19.23;;;9.55;;
66628;SDS011;53532;53.084;6.352;2022-12-05T12:56:21;18.88;;;9.30;;
66628;SDS011;53532;53.084;6.352;2022-12-05T12:58:56;18.52;;;9.20;;
66628;SDS011;53532;53.084;6.352;2022-12-05T13:01:30;18.50;;;9.40;;
66628;SDS011;53532;53.084;6.352;2022-12-05T13:03:58;17.95;;;8.88;;
66628;SDS011;53532;53.084;6.352;2022-12-05T13:06:27;20.15;;;9.52;;
66628;SDS011;53532;53.084;6.352;2022-12-05T13:08:55;18.65;;;9.23;;
66628;SDS011;53532;53.084;6.352;2022-12-05T13:11:22;20.77;;;10.07;;
66628;SDS011;53532;53.084;6.352;2022-12-05T13:13:49;18.33;;;8.95;;
66628;SDS011;53532;53.084;6.352;2022-12-05T13:16:20;18.00;;;9.55;;
66628;SDS011;53532;53.084;6.352;2022-12-05T13:18:49;18.60;;;9.37;;
66628;SDS011;53532;53.084;6.352;2022-12-05T13:21:15;18.63;;;9.60;;
66628;SDS011;53532;53.084;6.352;2022-12-05T13:23:43;17.38;;;10.00;;
66628;SDS011;53532;53.084;6.352;2022-12-05T13:26:10;18.23;;;9.00;;
66628;SDS011;53532;53.084;6.352;2022-12-05T13:28:37;18.55;;;10.02;;
66628;SDS011;53532;53.084;6.352;2022-12-05T13:31:06;18.10;;;9.40;;
66628;SDS011;53532;53.084;6.352;2022-12-05T13:33:33;18.73;;;10.70;;
66628;SDS011;53532;53.084;6.352;2022-12-05T13:36:08;20.15;;;10.45;;
66628;SDS011;53532;53.084;6.352;2022-12-05T13:39:00;18.80;;;10.95;;
66628;SDS011;53532;53.084;6.352;2022-12-05T13:41:46;21.02;;;11.13;;
66628;SDS011;53532;53.084;6.352;2022-12-05T13:44:36;20.17;;;10.50;;
66628;SDS011;53532;53.084;6.352;2022-12-05T13:47:03;22.80;;;10.65;;
66628;SDS011;53532;53.084;6.352;2022-12-05T13:49:35;20.80;;;11.25;;
66628;SDS011;53532;53.084;6.352;2022-12-05T13:52:07;19.05;;;11.13;;
66628;SDS011;53532;53.084;6.352;2022-12-05T13:54:34;19.85;;;9.27;;
66628;SDS011;53532;53.084;6.352;2022-12-05T13:57:12;16.65;;;9.20;;
66628;SDS011;53532;53.084;6.352;2022-12-05T13:59:58;18.92;;;9.07;;
66628;SDS011;53532;53.084;6.352;2022-12-05T14:07:55;15.77;;;8.35;;
66628;SDS011;53532;53.084;6.352;2022-12-05T14:15:51;20.05;;;9.60;;
66628;SDS011;53532;53.084;6.352;2022-12-05T14:18:20;18.80;;;8.57;;
66628;SDS011;53532;53.084;6.352;2022-12-05T14:20:48;19.02;;;9.15;;
66628;SDS011;53532;53.084;6.352;2022-12-05T14:23:30;22.80;;;9.95;;
66628;SDS011;53532;53.084;6.352;2022-12-05T14:28:34;16.95;;;9.07;;
66628;SDS011;53532;53.084;6.352;2022-12-05T14:31:07;17.80;;;7.75;;
66628;SDS011;53532;53.084;6.352;2022-12-05T14:33:37;16.75;;;8.20;;
66628;SDS011;53532;53.084;6.352;2022-12-05T14:36:03;18.40;;;7.60;;
66628;SDS011;53532;53.084;6.352;2022-12-05T14:38:32;17.73;;;8.68;;
66628;SDS011;53532;53.084;6.352;2022-12-05T14:41:09;16.08;;;8.40;;
66628;SDS011;53532;53.084;6.352;2022-12-05T14:43:36;18.65;;;8.43;;
66628;SDS011;53532;53.084;6.352;2022-12-05T14:46:04;19.25;;;9.10;;
66628;SDS011;53532;53.084;6.352;2022-12-05T14:48:32;19.10;;;9.10;;
66628;SDS011;53532;53.084;6.352;2022-12-05T14:51:00;20.23;;;10.05;;
66628;SDS011;53532;53.084;6.352;2022-12-05T14:53:29;20.33;;;10.45;;
66628;SDS011;53532;53.084;6.352;2022-12-05T14:56:00;19.02;;;9.95;;
66628;SDS011;53532;53.084;6.352;2022-12-05T14:58:30;22.58;;;10.25;;
66628;SDS011;53532;53.084;6.352;2022-12-05T15:00:58;24.23;;;10.30;;